sensor_id;sensor_type;location;lat;lon;timestamp;P1;durP1;ratioP1;P2;durP2;ratioP2
4391;SDS011;2210;51.938;8.488;2023-09-18T00:01:06;4.63;;;3.60;;
4391;SDS011;2210;51.938;8.488;2023-09-18T00:05:09;6.23;;;3.40;;
4391;SDS011;2210;51.938;8.488;2023-09-18T00:09:09;5.33;;;3.17;;
4391;SDS011;2210;51.938;8.488;2023-09-18T00:13:13;5.00;;;3.10;;
4391;SDS011;2210;51.938;8.488;2023-09-18T00:17:13;5.13;;;3.37;;
4391;SDS011;2210;51.938;8.488;2023-09-18T00:21:14;3.70;;;3.40;;
4391;SDS011;2210;51.938;8.488;2023-09-18T00:25:17;5.87;;;3.70;;
4391;SDS011;2210;51.938;8.488;2023-09-18T00:29:18;4.70;;;3.20;;
4391;SDS011;2210;51.938;8.488;2023-09-18T00:33:18;4.20;;;3.10;;
4391;SDS011;2210;51.938;8.488;2023-09-18T00:37:22;3.80;;;3.50;;
4391;SDS011;2210;51.938;8.488;2023-09-18T00:41:25;3.80;;;3.23;;
4391;SDS011;2210;51.938;8.488;2023-09-18T00:45:25;5.80;;;2.87;;
4391;SDS011;2210;51.938;8.488;2023-09-18T00:49:32;6.30;;;3.33;;
4391;SDS011;2210;51.938;8.488;2023-09-18T00:53:33;5.83;;;3.40;;
4391;SDS011;2210;51.938;8.488;2023-09-18T00:57:35;4.40;;;3.17;;
4391;SDS011;2210;51.938;8.488;2023-09-18T01:01:39;7.50;;;3.13;;
4391;SDS011;2210;51.938;8.488;2023-09-18T01:05:44;7.73;;;3.67;;
4391;SDS011;2210;51.938;8.488;2023-09-18T01:09:45;3.80;;;3.40;;
4391;SDS011;2210;51.938;8.488;2023-09-18T01:13:55;4.90;;;3.23;;
4391;SDS011;2210;51.938;8.488;2023-09-18T01:18:04;4.67;;;3.93;;
4391;SDS011;2210;51.938;8.488;2023-09-18T01:22:05;6.40;;;3.93;;
4391;SDS011;2210;51.938;8.488;2023-09-18T01:26:06;4.93;;;3.53;;
4391;SDS011;2210;51.938;8.488;2023-09-18T01:30:10;4.80;;;3.40;;
4391;SDS011;2210;51.938;8.488;2023-09-18T01:34:10;4.07;;;3.50;;
4391;SDS011;2210;51.938;8.488;2023-09-18T01:38:14;6.63;;;3.10;;
4391;SDS011;2210;51.938;8.488;2023-09-18T01:42:18;5.10;;;2.80;;
4391;SDS011;2210;51.938;8.488;2023-09-18T01:46:19;4.27;;;3.23;;
4391;SDS011;2210;51.938;8.488;2023-09-18T01:50:20;6.13;;;3.63;;
4391;SDS011;2210;51.938;8.488;2023-09-18T01:54:22;4.37;;;3.40;;
4391;SDS011;2210;51.938;8.488;2023-09-18T01:58:23;4.67;;;3.23;;
4391;SDS011;2210;51.938;8.488;2023-09-18T02:02:23;8.93;;;3.10;;
4391;SDS011;2210;51.938;8.488;2023-09-18T02:06:24;5.27;;;3.47;;
4391;SDS011;2210;51.938;8.488;2023-09-18T02:10:27;8.03;;;2.90;;
4391;SDS011;2210;51.938;8.488;2023-09-18T02:14:30;3.57;;;2.90;;
4391;SDS011;2210;51.938;8.488;2023-09-18T02:18:37;7.30;;;2.57;;
4391;SDS011;2210;51.938;8.488;2023-09-18T02:22:40;12.43;;;3.33;;
4391;SDS011;2210;51.938;8.488;2023-09-18T02:26:41;14.83;;;3.33;;
4391;SDS011;2210;51.938;8.488;2023-09-18T02:30:41;4.10;;;2.80;;
4391;SDS011;2210;51.938;8.488;2023-09-18T02:34:45;4.10;;;2.87;;
4391;SDS011;2210;51.938;8.488;2023-09-18T02:38:47;6.63;;;3.07;;
4391;SDS011;2210;51.938;8.488;2023-09-18T02:42:52;4.10;;;2.70;;
4391;SDS011;2210;51.938;8.488;2023-09-18T02:46:58;4.57;;;2.93;;
4391;SDS011;2210;51.938;8.488;2023-09-18T02:51:02;4.67;;;3.20;;
4391;SDS011;2210;51.938;8.488;2023-09-18T02:55:08;6.63;;;3.10;;
4391;SDS011;2210;51.938;8.488;2023-09-18T02:59:16;10.13;;;2.43;;
4391;SDS011;2210;51.938;8.488;2023-09-18T03:03:18;10.63;;;3.13;;
4391;SDS011;2210;51.938;8.488;2023-09-18T03:07:22;4.50;;;3.03;;
4391;SDS011;2210;51.938;8.488;2023-09-18T03:11:22;7.30;;;2.67;;
4391;SDS011;2210;51.938;8.488;2023-09-18T03:15:27;3.90;;;2.73;;
4391;SDS011;2210;51.938;8.488;2023-09-18T03:19:27;12.07;;;2.67;;
4391;SDS011;2210;51.938;8.488;2023-09-18T03:23:28;2.80;;;2.60;;
4391;SDS011;2210;51.938;8.488;2023-09-18T03:27:28;4.00;;;3.40;;
4391;SDS011;2210;51.938;8.488;2023-09-18T03:31:44;5.50;;;3.30;;
4391;SDS011;2210;51.938;8.488;2023-09-18T03:35:48;4.20;;;2.53;;
4391;SDS011;2210;51.938;8.488;2023-09-18T03:39:49;3.83;;;2.73;;
4391;SDS011;2210;51.938;8.488;2023-09-18T03:43:50;7.80;;;2.70;;
4391;SDS011;2210;51.938;8.488;2023-09-18T03:47:55;3.37;;;2.93;;
4391;SDS011;2210;51.938;8.488;2023-09-18T03:51:55;8.00;;;4.30;;
4391;SDS011;2210;51.938;8.488;2023-09-18T03:55:57;4.00;;;2.60;;
4391;SDS011;2210;51.938;8.488;2023-09-18T03:59:58;6.63;;;3.87;;
4391;SDS011;2210;51.938;8.488;2023-09-18T04:04:04;2.80;;;2.60;;
4391;SDS011;2210;51.938;8.488;2023-09-18T04:08:04;8.73;;;2.97;;
4391;SDS011;2210;51.938;8.488;2023-09-18T04:12:08;4.20;;;3.57;;
4391;SDS011;2210;51.938;8.488;2023-09-18T04:16:09;3.63;;;2.70;;
4391;SDS011;2210;51.938;8.488;2023-09-18T04:20:13;3.43;;;3.00;;
4391;SDS011;2210;51.938;8.488;2023-09-18T04:24:14;3.53;;;2.70;;
4391;SDS011;2210;51.938;8.488;2023-09-18T04:28:16;4.00;;;3.03;;
4391;SDS011;2210;51.938;8.488;2023-09-18T04:32:18;3.27;;;2.97;;
4391;SDS011;2210;51.938;8.488;2023-09-18T04:36:22;3.50;;;2.90;;
4391;SDS011;2210;51.938;8.488;2023-09-18T04:40:22;4.00;;;2.70;;
4391;SDS011;2210;51.938;8.488;2023-09-18T04:44:29;3.10;;;2.70;;
4391;SDS011;2210;51.938;8.488;2023-09-18T04:48:37;4.50;;;3.30;;
4391;SDS011;2210;51.938;8.488;2023-09-18T04:52:37;6.03;;;3.03;;
4391;SDS011;2210;51.938;8.488;2023-09-18T04:56:40;3.45;;;2.95;;
4391;SDS011;2210;51.938;8.488;2023-09-18T05:00:41;3.23;;;2.80;;
4391;SDS011;2210;51.938;8.488;2023-09-18T05:04:42;2.97;;;2.67;;
4391;SDS011;2210;51.938;8.488;2023-09-18T05:08:43;3.83;;;3.30;;
4391;SDS011;2210;51.938;8.488;2023-09-18T05:12:44;3.37;;;2.50;;
4391;SDS011;2210;51.938;8.488;2023-09-18T05:16:47;2.90;;;2.67;;
4391;SDS011;2210;51.938;8.488;2023-09-18T05:20:47;3.17;;;2.90;;
4391;SDS011;2210;51.938;8.488;2023-09-18T05:25:06;3.87;;;2.97;;
4391;SDS011;2210;51.938;8.488;2023-09-18T05:29:15;4.60;;;3.20;;
4391;SDS011;2210;51.938;8.488;2023-09-18T05:33:15;7.23;;;3.20;;
4391;SDS011;2210;51.938;8.488;2023-09-18T05:37:15;4.23;;;2.90;;
4391;SDS011;2210;51.938;8.488;2023-09-18T05:41:16;4.17;;;2.93;;
4391;SDS011;2210;51.938;8.488;2023-09-18T05:45:16;4.87;;;3.30;;
4391;SDS011;2210;51.938;8.488;2023-09-18T05:49:17;2.60;;;2.40;;
4391;SDS011;2210;51.938;8.488;2023-09-18T05:53:17;3.67;;;2.93;;
4391;SDS011;2210;51.938;8.488;2023-09-18T05:57:24;5.37;;;3.07;;
4391;SDS011;2210;51.938;8.488;2023-09-18T06:01:24;4.27;;;3.27;;
4391;SDS011;2210;51.938;8.488;2023-09-18T06:05:25;6.80;;;2.83;;
4391;SDS011;2210;51.938;8.488;2023-09-18T06:09:25;5.03;;;3.23;;
4391;SDS011;2210;51.938;8.488;2023-09-18T06:13:27;4.20;;;2.60;;
4391;SDS011;2210;51.938;8.488;2023-09-18T06:17:27;3.07;;;2.77;;
4391;SDS011;2210;51.938;8.488;2023-09-18T06:21:31;3.70;;;3.20;;
4391;SDS011;2210;51.938;8.488;2023-09-18T06:25:33;7.50;;;3.00;;
4391;SDS011;2210;51.938;8.488;2023-09-18T06:29:40;5.30;;;2.80;;
4391;SDS011;2210;51.938;8.488;2023-09-18T06:33:43;3.40;;;2.87;;
4391;SDS011;2210;51.938;8.488;2023-09-18T06:37:43;4.73;;;2.47;;
4391;SDS011;2210;51.938;8.488;2023-09-18T06:41:43;5.35;;;2.85;;
4391;SDS011;2210;51.938;8.488;2023-09-18T06:45:46;4.80;;;3.17;;
4391;SDS011;2210;51.938;8.488;2023-09-18T06:49:47;5.73;;;3.00;;
4391;SDS011;2210;51.938;8.488;2023-09-18T06:53:47;5.40;;;2.97;;
4391;SDS011;2210;51.938;8.488;2023-09-18T06:57:47;5.03;;;2.90;;
4391;SDS011;2210;51.938;8.488;2023-09-18T07:01:48;4.10;;;3.30;;
4391;SDS011;2210;51.938;8.488;2023-09-18T07:05:52;3.40;;;3.10;;
4391;SDS011;2210;51.938;8.488;2023-09-18T07:09:58;4.90;;;2.83;;
4391;SDS011;2210;51.938;8.488;2023-09-18T07:13:59;8.20;;;3.13;;
4391;SDS011;2210;51.938;8.488;2023-09-18T07:18:01;4.13;;;2.33;;
4391;SDS011;2210;51.938;8.488;2023-09-18T07:22:01;5.43;;;2.80;;
4391;SDS011;2210;51.938;8.488;2023-09-18T07:26:05;4.80;;;2.40;;
4391;SDS011;2210;51.938;8.488;2023-09-18T07:30:06;6.17;;;2.30;;
4391;SDS011;2210;51.938;8.488;2023-09-18T07:34:06;6.13;;;2.17;;
4391;SDS011;2210;51.938;8.488;2023-09-18T07:38:08;3.87;;;1.73;;
4391;SDS011;2210;51.938;8.488;2023-09-18T07:42:12;3.83;;;2.40;;
4391;SDS011;2210;51.938;8.488;2023-09-18T07:46:12;3.30;;;1.90;;
4391;SDS011;2210;51.938;8.488;2023-09-18T07:50:12;7.73;;;1.90;;
4391;SDS011;2210;51.938;8.488;2023-09-18T07:54:14;2.60;;;1.90;;
4391;SDS011;2210;51.938;8.488;2023-09-18T07:58:19;9.13;;;2.23;;
4391;SDS011;2210;51.938;8.488;2023-09-18T08:02:29;10.20;;;2.00;;
4391;SDS011;2210;51.938;8.488;2023-09-18T08:15:42;2.30;;;1.57;;
4391;SDS011;2210;51.938;8.488;2023-09-18T08:19:43;4.50;;;1.50;;
4391;SDS011;2210;51.938;8.488;2023-09-18T08:23:44;2.43;;;1.90;;
4391;SDS011;2210;51.938;8.488;2023-09-18T08:27:45;2.90;;;1.60;;
4391;SDS011;2210;51.938;8.488;2023-09-18T08:31:45;5.13;;;1.57;;
4391;SDS011;2210;51.938;8.488;2023-09-18T08:35:49;3.73;;;1.43;;
4391;SDS011;2210;51.938;8.488;2023-09-18T08:53:07;3.17;;;1.87;;
4391;SDS011;2210;51.938;8.488;2023-09-18T08:57:14;4.57;;;1.83;;
4391;SDS011;2210;51.938;8.488;2023-09-18T09:01:20;4.53;;;1.87;;
4391;SDS011;2210;51.938;8.488;2023-09-18T09:09:44;5.50;;;1.80;;
4391;SDS011;2210;51.938;8.488;2023-09-18T09:18:28;5.10;;;1.20;;
4391;SDS011;2210;51.938;8.488;2023-09-18T09:22:34;3.13;;;1.50;;
4391;SDS011;2210;51.938;8.488;2023-09-18T09:26:37;3.83;;;1.50;;
4391;SDS011;2210;51.938;8.488;2023-09-18T09:30:43;3.83;;;1.40;;
4391;SDS011;2210;51.938;8.488;2023-09-18T09:34:49;3.73;;;1.60;;
4391;SDS011;2210;51.938;8.488;2023-09-18T09:38:54;4.43;;;1.20;;
4391;SDS011;2210;51.938;8.488;2023-09-18T09:43:00;3.33;;;1.50;;
4391;SDS011;2210;51.938;8.488;2023-09-18T09:47:11;5.07;;;1.53;;
4391;SDS011;2210;51.938;8.488;2023-09-18T09:51:15;2.87;;;1.20;;
4391;SDS011;2210;51.938;8.488;2023-09-18T09:55:22;4.23;;;1.33;;
4391;SDS011;2210;51.938;8.488;2023-09-18T09:59:44;5.37;;;1.70;;
4391;SDS011;2210;51.938;8.488;2023-09-18T10:03:47;2.80;;;1.37;;
4391;SDS011;2210;51.938;8.488;2023-09-18T10:12:11;2.23;;;1.50;;
4391;SDS011;2210;51.938;8.488;2023-09-18T10:16:18;4.70;;;1.20;;
4391;SDS011;2210;51.938;8.488;2023-09-18T10:20:24;3.00;;;1.60;;
4391;SDS011;2210;51.938;8.488;2023-09-18T10:24:42;6.97;;;1.37;;
4391;SDS011;2210;51.938;8.488;2023-09-18T10:28:47;3.93;;;1.17;;
4391;SDS011;2210;51.938;8.488;2023-09-18T10:32:48;2.03;;;1.70;;
4391;SDS011;2210;51.938;8.488;2023-09-18T10:36:54;2.70;;;1.30;;
4391;SDS011;2210;51.938;8.488;2023-09-18T10:40:55;2.20;;;1.00;;
4391;SDS011;2210;51.938;8.488;2023-09-18T10:45:03;7.07;;;1.37;;
4391;SDS011;2210;51.938;8.488;2023-09-18T10:49:04;3.10;;;1.90;;
4391;SDS011;2210;51.938;8.488;2023-09-18T10:53:05;4.60;;;1.17;;
4391;SDS011;2210;51.938;8.488;2023-09-18T10:57:12;4.23;;;1.20;;
4391;SDS011;2210;51.938;8.488;2023-09-18T11:01:16;4.33;;;1.20;;
4391;SDS011;2210;51.938;8.488;2023-09-18T11:05:28;2.70;;;1.37;;
4391;SDS011;2210;51.938;8.488;2023-09-18T11:09:43;5.07;;;1.30;;
4391;SDS011;2210;51.938;8.488;2023-09-18T11:14:02;2.43;;;1.53;;
4391;SDS011;2210;51.938;8.488;2023-09-18T11:18:13;1.87;;;1.30;;
4391;SDS011;2210;51.938;8.488;2023-09-18T11:22:19;6.97;;;2.03;;
4391;SDS011;2210;51.938;8.488;2023-09-18T11:26:36;3.00;;;1.50;;
4391;SDS011;2210;51.938;8.488;2023-09-18T11:30:52;2.20;;;1.37;;
4391;SDS011;2210;51.938;8.488;2023-09-18T11:35:10;1.67;;;1.40;;
4391;SDS011;2210;51.938;8.488;2023-09-18T11:39:12;3.30;;;1.20;;
4391;SDS011;2210;51.938;8.488;2023-09-18T11:47:24;4.07;;;1.53;;
4391;SDS011;2210;51.938;8.488;2023-09-18T11:51:32;2.40;;;1.10;;
4391;SDS011;2210;51.938;8.488;2023-09-18T11:55:32;3.23;;;1.20;;
4391;SDS011;2210;51.938;8.488;2023-09-18T11:59:42;3.53;;;1.33;;
4391;SDS011;2210;51.938;8.488;2023-09-18T12:03:46;3.50;;;1.23;;
4391;SDS011;2210;51.938;8.488;2023-09-18T12:07:59;2.50;;;1.30;;
4391;SDS011;2210;51.938;8.488;2023-09-18T12:12:11;2.20;;;1.37;;
4391;SDS011;2210;51.938;8.488;2023-09-18T12:16:14;1.70;;;1.20;;
4391;SDS011;2210;51.938;8.488;2023-09-18T12:20:15;2.07;;;1.03;;
4391;SDS011;2210;51.938;8.488;2023-09-18T12:24:25;2.13;;;1.20;;
4391;SDS011;2210;51.938;8.488;2023-09-18T12:28:25;2.03;;;1.30;;
4391;SDS011;2210;51.938;8.488;2023-09-18T12:32:31;1.53;;;1.10;;
4391;SDS011;2210;51.938;8.488;2023-09-18T12:36:42;4.50;;;1.10;;
4391;SDS011;2210;51.938;8.488;2023-09-18T12:40:47;1.73;;;1.13;;
4391;SDS011;2210;51.938;8.488;2023-09-18T12:44:51;1.30;;;1.20;;
4391;SDS011;2210;51.938;8.488;2023-09-18T12:48:51;2.00;;;1.00;;
4391;SDS011;2210;51.938;8.488;2023-09-18T12:57:25;1.50;;;1.10;;
4391;SDS011;2210;51.938;8.488;2023-09-18T13:01:28;3.07;;;1.13;;
4391;SDS011;2210;51.938;8.488;2023-09-18T13:05:44;2.27;;;1.20;;
4391;SDS011;2210;51.938;8.488;2023-09-18T13:14:10;1.53;;;1.40;;
4391;SDS011;2210;51.938;8.488;2023-09-18T13:18:11;2.40;;;1.30;;
4391;SDS011;2210;51.938;8.488;2023-09-18T13:22:21;1.83;;;1.10;;
4391;SDS011;2210;51.938;8.488;2023-09-18T13:26:22;1.97;;;1.00;;
4391;SDS011;2210;51.938;8.488;2023-09-18T13:30:32;1.47;;;1.10;;
4391;SDS011;2210;51.938;8.488;2023-09-18T13:34:35;2.00;;;1.20;;
4391;SDS011;2210;51.938;8.488;2023-09-18T13:38:35;3.00;;;1.60;;
4391;SDS011;2210;51.938;8.488;2023-09-18T13:42:36;4.40;;;1.33;;
4391;SDS011;2210;51.938;8.488;2023-09-18T13:46:46;3.53;;;1.40;;
4391;SDS011;2210;51.938;8.488;2023-09-18T13:50:52;1.37;;;0.97;;
4391;SDS011;2210;51.938;8.488;2023-09-18T13:54:56;3.20;;;0.90;;
4391;SDS011;2210;51.938;8.488;2023-09-18T13:58:56;1.50;;;1.00;;
4391;SDS011;2210;51.938;8.488;2023-09-18T14:07:12;2.70;;;1.07;;
4391;SDS011;2210;51.938;8.488;2023-09-18T14:11:13;2.40;;;0.90;;
4391;SDS011;2210;51.938;8.488;2023-09-18T14:15:13;2.03;;;1.17;;
4391;SDS011;2210;51.938;8.488;2023-09-18T14:19:14;1.90;;;1.00;;
4391;SDS011;2210;51.938;8.488;2023-09-18T14:23:14;4.63;;;1.27;;
4391;SDS011;2210;51.938;8.488;2023-09-18T14:27:14;1.77;;;1.20;;
4391;SDS011;2210;51.938;8.488;2023-09-18T14:31:17;1.17;;;1.07;;
4391;SDS011;2210;51.938;8.488;2023-09-18T14:35:17;1.20;;;1.10;;
4391;SDS011;2210;51.938;8.488;2023-09-18T14:39:18;1.90;;;1.47;;
4391;SDS011;2210;51.938;8.488;2023-09-18T14:43:18;3.67;;;1.10;;
4391;SDS011;2210;51.938;8.488;2023-09-18T14:47:21;3.57;;;1.63;;
4391;SDS011;2210;51.938;8.488;2023-09-18T14:51:37;3.53;;;1.43;;
4391;SDS011;2210;51.938;8.488;2023-09-18T14:55:43;4.90;;;1.50;;
4391;SDS011;2210;51.938;8.488;2023-09-18T14:59:44;2.37;;;1.23;;
4391;SDS011;2210;51.938;8.488;2023-09-18T15:03:47;1.83;;;1.60;;
4391;SDS011;2210;51.938;8.488;2023-09-18T15:07:48;2.40;;;1.57;;
4391;SDS011;2210;51.938;8.488;2023-09-18T15:11:49;2.20;;;1.30;;
4391;SDS011;2210;51.938;8.488;2023-09-18T15:15:49;4.47;;;1.23;;
4391;SDS011;2210;51.938;8.488;2023-09-18T15:19:50;2.60;;;1.37;;
4391;SDS011;2210;51.938;8.488;2023-09-18T15:23:55;7.40;;;1.57;;
4391;SDS011;2210;51.938;8.488;2023-09-18T15:27:59;2.80;;;1.23;;
4391;SDS011;2210;51.938;8.488;2023-09-18T15:32:02;3.20;;;1.50;;
4391;SDS011;2210;51.938;8.488;2023-09-18T15:36:03;1.63;;;1.30;;
4391;SDS011;2210;51.938;8.488;2023-09-18T15:40:03;4.67;;;1.60;;
4391;SDS011;2210;51.938;8.488;2023-09-18T15:44:05;1.27;;;1.17;;
4391;SDS011;2210;51.938;8.488;2023-09-18T15:48:07;3.13;;;1.57;;
4391;SDS011;2210;51.938;8.488;2023-09-18T15:52:07;1.87;;;1.53;;
4391;SDS011;2210;51.938;8.488;2023-09-18T15:56:08;4.10;;;1.33;;
4391;SDS011;2210;51.938;8.488;2023-09-18T16:00:15;2.40;;;1.50;;
4391;SDS011;2210;51.938;8.488;2023-09-18T16:04:20;6.30;;;1.70;;
4391;SDS011;2210;51.938;8.488;2023-09-18T16:08:23;2.50;;;1.53;;
4391;SDS011;2210;51.938;8.488;2023-09-18T16:12:24;1.47;;;1.20;;
4391;SDS011;2210;51.938;8.488;2023-09-18T16:16:25;1.50;;;1.23;;
4391;SDS011;2210;51.938;8.488;2023-09-18T16:20:25;1.70;;;1.40;;
4391;SDS011;2210;51.938;8.488;2023-09-18T16:24:28;3.33;;;1.53;;
4391;SDS011;2210;51.938;8.488;2023-09-18T16:28:36;1.87;;;1.37;;
4391;SDS011;2210;51.938;8.488;2023-09-18T16:32:42;2.60;;;1.20;;
4391;SDS011;2210;51.938;8.488;2023-09-18T16:36:49;3.43;;;1.23;;
4391;SDS011;2210;51.938;8.488;2023-09-18T16:40:49;1.53;;;1.43;;
4391;SDS011;2210;51.938;8.488;2023-09-18T16:44:53;1.47;;;1.20;;
4391;SDS011;2210;51.938;8.488;2023-09-18T16:48:54;5.57;;;1.10;;
4391;SDS011;2210;51.938;8.488;2023-09-18T16:52:55;1.53;;;1.13;;
4391;SDS011;2210;51.938;8.488;2023-09-18T16:56:55;1.90;;;0.77;;
4391;SDS011;2210;51.938;8.488;2023-09-18T17:00:56;2.50;;;1.00;;
4391;SDS011;2210;51.938;8.488;2023-09-18T17:04:56;2.60;;;1.10;;
4391;SDS011;2210;51.938;8.488;2023-09-18T17:09:03;2.60;;;1.13;;
4391;SDS011;2210;51.938;8.488;2023-09-18T17:13:04;3.90;;;1.40;;
4391;SDS011;2210;51.938;8.488;2023-09-18T17:17:07;1.40;;;1.10;;
4391;SDS011;2210;51.938;8.488;2023-09-18T17:21:13;2.53;;;1.20;;
4391;SDS011;2210;51.938;8.488;2023-09-18T17:25:15;2.50;;;1.60;;
4391;SDS011;2210;51.938;8.488;2023-09-18T17:29:15;1.20;;;1.10;;
4391;SDS011;2210;51.938;8.488;2023-09-18T17:33:17;9.57;;;2.90;;
4391;SDS011;2210;51.938;8.488;2023-09-18T17:37:23;2.27;;;1.40;;
4391;SDS011;2210;51.938;8.488;2023-09-18T17:41:28;1.30;;;1.20;;
4391;SDS011;2210;51.938;8.488;2023-09-18T17:45:32;1.53;;;1.20;;
4391;SDS011;2210;51.938;8.488;2023-09-18T17:49:35;3.07;;;1.63;;
4391;SDS011;2210;51.938;8.488;2023-09-18T17:53:35;1.93;;;1.30;;
4391;SDS011;2210;51.938;8.488;2023-09-18T17:57:36;1.80;;;1.30;;
4391;SDS011;2210;51.938;8.488;2023-09-18T18:01:38;1.60;;;1.43;;
4391;SDS011;2210;51.938;8.488;2023-09-18T18:05:42;1.57;;;1.47;;
4391;SDS011;2210;51.938;8.488;2023-09-18T18:09:47;7.67;;;1.30;;
4391;SDS011;2210;51.938;8.488;2023-09-18T18:13:54;1.10;;;1.00;;
4391;SDS011;2210;51.938;8.488;2023-09-18T18:17:54;1.53;;;1.10;;
4391;SDS011;2210;51.938;8.488;2023-09-18T18:21:54;1.30;;;1.20;;
4391;SDS011;2210;51.938;8.488;2023-09-18T18:26:07;6.50;;;1.30;;
4391;SDS011;2210;51.938;8.488;2023-09-18T18:30:09;5.57;;;1.30;;
4391;SDS011;2210;51.938;8.488;2023-09-18T18:34:13;1.93;;;1.33;;
4391;SDS011;2210;51.938;8.488;2023-09-18T18:38:13;2.67;;;1.10;;
4391;SDS011;2210;51.938;8.488;2023-09-18T18:42:13;2.23;;;1.33;;
4391;SDS011;2210;51.938;8.488;2023-09-18T18:46:14;1.20;;;1.10;;
4391;SDS011;2210;51.938;8.488;2023-09-18T18:50:23;6.50;;;1.23;;
4391;SDS011;2210;51.938;8.488;2023-09-18T18:54:24;1.80;;;1.07;;
4391;SDS011;2210;51.938;8.488;2023-09-18T18:58:25;2.37;;;1.40;;
4391;SDS011;2210;51.938;8.488;2023-09-18T19:12:25;3.73;;;1.30;;
4391;SDS011;2210;51.938;8.488;2023-09-18T19:16:30;2.23;;;1.13;;
4391;SDS011;2210;51.938;8.488;2023-09-18T19:20:34;1.77;;;1.50;;
4391;SDS011;2210;51.938;8.488;2023-09-18T19:24:44;1.97;;;1.10;;
4391;SDS011;2210;51.938;8.488;2023-09-18T19:28:47;1.20;;;0.87;;
4391;SDS011;2210;51.938;8.488;2023-09-18T19:32:47;0.90;;;0.80;;
4391;SDS011;2210;51.938;8.488;2023-09-18T19:36:48;4.50;;;1.07;;
4391;SDS011;2210;51.938;8.488;2023-09-18T19:40:53;1.83;;;0.93;;
4391;SDS011;2210;51.938;8.488;2023-09-18T19:44:54;2.53;;;1.03;;
4391;SDS011;2210;51.938;8.488;2023-09-18T19:48:58;1.63;;;0.97;;
4391;SDS011;2210;51.938;8.488;2023-09-18T19:53:02;4.60;;;1.60;;
4391;SDS011;2210;51.938;8.488;2023-09-18T19:57:02;4.00;;;1.37;;
4391;SDS011;2210;51.938;8.488;2023-09-18T20:01:05;1.57;;;1.33;;
4391;SDS011;2210;51.938;8.488;2023-09-18T20:05:07;2.70;;;1.03;;
4391;SDS011;2210;51.938;8.488;2023-09-18T20:09:12;5.43;;;1.37;;
4391;SDS011;2210;51.938;8.488;2023-09-18T20:13:22;1.50;;;1.30;;
4391;SDS011;2210;51.938;8.488;2023-09-18T20:21:44;2.57;;;1.10;;
4391;SDS011;2210;51.938;8.488;2023-09-18T20:25:46;3.73;;;1.20;;
4391;SDS011;2210;51.938;8.488;2023-09-18T20:29:59;1.63;;;1.03;;
4391;SDS011;2210;51.938;8.488;2023-09-18T20:34:00;2.47;;;1.30;;
4391;SDS011;2210;51.938;8.488;2023-09-18T20:38:00;2.13;;;1.10;;
4391;SDS011;2210;51.938;8.488;2023-09-18T20:42:07;1.90;;;1.23;;
4391;SDS011;2210;51.938;8.488;2023-09-18T20:46:07;2.13;;;1.10;;
4391;SDS011;2210;51.938;8.488;2023-09-18T20:50:08;2.10;;;1.27;;
4391;SDS011;2210;51.938;8.488;2023-09-18T20:54:14;5.07;;;1.20;;
4391;SDS011;2210;51.938;8.488;2023-09-18T20:58:15;4.57;;;1.27;;
4391;SDS011;2210;51.938;8.488;2023-09-18T21:02:15;2.27;;;1.23;;
4391;SDS011;2210;51.938;8.488;2023-09-18T21:06:21;1.33;;;0.90;;
4391;SDS011;2210;51.938;8.488;2023-09-18T21:10:22;1.87;;;0.90;;
4391;SDS011;2210;51.938;8.488;2023-09-18T21:14:34;1.00;;;0.90;;
4391;SDS011;2210;51.938;8.488;2023-09-18T21:18:38;1.20;;;1.10;;
4391;SDS011;2210;51.938;8.488;2023-09-18T21:22:42;5.13;;;1.80;;
4391;SDS011;2210;51.938;8.488;2023-09-18T21:26:42;1.20;;;0.83;;
4391;SDS011;2210;51.938;8.488;2023-09-18T21:30:42;4.93;;;1.47;;
4391;SDS011;2210;51.938;8.488;2023-09-18T21:34:46;3.90;;;1.20;;
4391;SDS011;2210;51.938;8.488;2023-09-18T21:38:46;1.47;;;1.10;;
4391;SDS011;2210;51.938;8.488;2023-09-18T21:42:49;1.13;;;0.90;;
4391;SDS011;2210;51.938;8.488;2023-09-18T21:46:49;4.00;;;1.40;;
4391;SDS011;2210;51.938;8.488;2023-09-18T21:50:49;1.17;;;1.07;;
4391;SDS011;2210;51.938;8.488;2023-09-18T21:54:52;2.93;;;1.10;;
4391;SDS011;2210;51.938;8.488;2023-09-18T21:58:56;2.30;;;1.20;;
4391;SDS011;2210;51.938;8.488;2023-09-18T22:02:56;1.10;;;0.80;;
4391;SDS011;2210;51.938;8.488;2023-09-18T22:06:56;1.20;;;0.90;;
4391;SDS011;2210;51.938;8.488;2023-09-18T22:10:56;1.20;;;1.00;;
4391;SDS011;2210;51.938;8.488;2023-09-18T22:14:57;1.07;;;0.93;;
4391;SDS011;2210;51.938;8.488;2023-09-18T22:19:01;2.07;;;1.30;;
4391;SDS011;2210;51.938;8.488;2023-09-18T22:23:04;3.27;;;1.07;;
4391;SDS011;2210;51.938;8.488;2023-09-18T22:27:09;1.00;;;0.90;;
4391;SDS011;2210;51.938;8.488;2023-09-18T22:31:12;1.63;;;1.17;;
4391;SDS011;2210;51.938;8.488;2023-09-18T22:35:18;0.90;;;0.90;;
4391;SDS011;2210;51.938;8.488;2023-09-18T22:57:13;1.50;;;0.97;;
4391;SDS011;2210;51.938;8.488;2023-09-18T23:01:14;1.40;;;1.10;;
4391;SDS011;2210;51.938;8.488;2023-09-18T23:05:19;1.20;;;0.90;;
4391;SDS011;2210;51.938;8.488;2023-09-18T23:09:27;1.43;;;1.00;;
4391;SDS011;2210;51.938;8.488;2023-09-18T23:13:27;1.80;;;1.10;;
4391;SDS011;2210;51.938;8.488;2023-09-18T23:17:31;1.63;;;1.00;;
4391;SDS011;2210;51.938;8.488;2023-09-18T23:21:34;1.43;;;1.07;;
4391;SDS011;2210;51.938;8.488;2023-09-18T23:25:39;1.80;;;1.47;;
4391;SDS011;2210;51.938;8.488;2023-09-18T23:29:41;2.00;;;1.20;;
4391;SDS011;2210;51.938;8.488;2023-09-18T23:33:45;2.50;;;1.20;;
4391;SDS011;2210;51.938;8.488;2023-09-18T23:37:56;2.40;;;1.57;;
4391;SDS011;2210;51.938;8.488;2023-09-18T23:41:58;2.00;;;1.30;;
4391;SDS011;2210;51.938;8.488;2023-09-18T23:46:05;2.93;;;1.40;;
4391;SDS011;2210;51.938;8.488;2023-09-18T23:50:10;2.60;;;1.60;;
4391;SDS011;2210;51.938;8.488;2023-09-18T23:54:12;1.87;;;1.20;;
4391;SDS011;2210;51.938;8.488;2023-09-18T23:58:13;1.70;;;1.30;;
